Time;durP1;ratioP1;P1;durP2;ratioP2;P2;SDS_P1;SDS_P2;PMS_P1;PMS_P2;Temp;Humidity;BMP_temperature;BMP_pressure;BME280_temperature;BME280_humidity;BME280_pressure;Samples;Min_cycle;Max_cycle;Signal;HPM_P1;HPM_P2
2022/02/02 00:04:22;;;;;;;7.88;3.60;;;7.40;99.90;;;;;;5081815;28;20386;-54
2022/02/02 00:07:01;;;;;;;9.20;3.83;;;7.40;99.90;;;;;;5081117;28;20380;-55
2022/02/02 00:09:27;;;;;;;9.55;3.60;;;7.40;99.90;;;;;;5089292;28;20383;-55
2022/02/02 00:14:30;;;;;;;7.50;3.63;;;7.40;99.90;;;;;;5085778;28;20392;-54
2022/02/02 00:17:05;;;;;;;7.40;2.90;;;7.40;99.90;;;;;;5086273;28;20497;-55
2022/02/02 00:22:09;;;;;;;11.40;2.90;;;7.40;99.90;;;;;;5090547;28;20563;-54
2022/02/02 00:27:19;;;;;;;8.23;2.93;;;7.30;99.90;;;;;;5090660;28;20406;-54
2022/02/02 00:29:50;;;;;;;7.95;3.05;;;7.30;99.90;;;;;;5086331;28;20909;-54
2022/02/02 00:34:45;;;;;;;7.90;2.92;;;7.30;99.90;;;;;;5081359;28;20503;-55
2022/02/02 00:37:11;;;;;;;6.15;3.15;;;7.30;99.90;;;;;;5090810;28;20501;-55
2022/02/02 00:39:37;;;;;;;9.23;3.13;;;7.30;99.90;;;;;;5091908;28;20411;-55
2022/02/02 00:42:03;;;;;;;7.70;3.50;;;7.40;99.90;;;;;;5090724;28;20712;-54
2022/02/02 00:44:29;;;;;;;8.68;3.45;;;7.30;99.90;;;;;;5102274;28;20426;-55
2022/02/02 00:46:56;;;;;;;6.80;3.10;;;7.30;99.90;;;;;;5101999;28;20412;-54
2022/02/02 00:49:21;;;;;;;9.38;3.90;;;8.20;99.90;;;;;;5080821;28;20914;-54
2022/02/02 00:51:50;;;;;;;8.52;3.80;;;7.20;99.90;;;;;;5090899;28;20406;-54
2022/02/02 00:54:22;;;;;;;7.72;3.80;;;7.30;99.90;;;;;;5083527;28;20393;-55
2022/02/02 00:56:49;;;;;;;10.68;3.80;;;7.30;99.90;;;;;;5092243;28;20418;-55
2022/02/02 00:59:15;;;;;;;11.75;3.80;;;7.30;99.90;;;;;;5088641;28;20388;-55
2022/02/02 01:01:42;;;;;;;10.93;3.47;;;7.30;99.90;;;;;;5086643;28;20410;-55
2022/02/02 01:04:08;;;;;;;7.05;2.70;;;7.30;99.90;;;;;;5089484;28;20381;-55
2022/02/02 01:06:38;;;;;;;8.77;3.47;;;7.30;99.90;;;;;;5106792;28;20391;-54
2022/02/02 01:09:18;;;;;;;7.68;3.35;;;7.30;99.90;;;;;;5077362;28;20380;-55
2022/02/02 01:12:04;;;;;;;6.50;2.80;;;7.30;99.90;;;;;;5100999;28;20391;-55
2022/02/02 01:20:04;;;;;;;7.45;3.15;;;7.30;99.90;;;;;;5076029;28;20441;-55
2022/02/02 01:27:57;;;;;;;6.65;2.67;;;7.40;99.90;;;;;;5089182;28;20461;-54
2022/02/02 01:30:24;;;;;;;7.60;2.90;;;7.30;99.90;;;;;;5090643;28;20453;-54
2022/02/02 01:32:51;;;;;;;6.82;2.55;;;7.30;99.90;;;;;;5083030;28;20399;-54
2022/02/02 01:35:18;;;;;;;8.48;2.83;;;7.30;99.90;;;;;;5088586;28;20474;-54
2022/02/02 01:37:48;;;;;;;9.20;3.50;;;7.40;99.90;;;;;;5089155;28;20435;-54
2022/02/02 01:40:25;;;;;;;9.65;3.13;;;7.40;99.90;;;;;;5068579;28;20861;-55
2022/02/02 01:42:57;;;;;;;7.72;2.80;;;7.60;99.90;;;;;;5069636;28;20407;-55
2022/02/02 01:45:33;;;;;;;5.88;2.65;;;7.60;99.90;;;;;;5068565;28;20860;-55
2022/02/02 01:48:13;;;;;;;5.82;2.70;;;7.60;99.90;;;;;;5069701;28;20399;-55
2022/02/02 01:50:56;;;;;;;7.20;2.70;;;7.70;99.90;;;;;;5069620;28;20380;-55
2022/02/02 01:55:58;;;;;;;6.97;2.45;;;7.60;99.90;;;;;;5069492;28;20415;-55
2022/02/02 02:01:10;;;;;;;5.45;2.00;;;7.50;99.90;;;;;;5068758;28;20805;-55
2022/02/02 02:03:37;;;;;;;5.93;2.55;;;7.40;99.90;;;;;;5069471;28;20388;-54
2022/02/02 02:06:06;;;;;;;6.90;3.00;;;7.50;99.90;;;;;;5069536;28;20380;-54
2022/02/02 02:08:32;;;;;;;6.93;2.50;;;7.60;99.90;;;;;;5069587;28;20376;-55
2022/02/02 02:10:58;;;;;;;5.63;1.85;;;7.50;99.90;;;;;;5073424;28;20433;-54
2022/02/02 02:16:02;;;;;;;8.73;2.40;;;7.00;99.90;;;;;;5073568;28;20415;-54
2022/02/02 02:18:28;;;;;;;8.05;2.28;;;6.90;99.90;;;;;;5072762;28;20414;-54
2022/02/02 02:20:55;;;;;;;6.50;2.20;;;6.80;99.90;;;;;;5072148;28;20384;-55
2022/02/02 02:23:21;;;;;;;5.10;2.40;;;6.80;99.90;;;;;;5072241;28;20503;-55
2022/02/02 02:25:47;;;;;;;6.40;2.70;;;6.70;99.90;;;;;;5082112;28;20387;-54
2022/02/02 02:31:27;;;;;;;9.20;3.80;;;6.60;99.90;;;;;;5075385;28;20367;-54
2022/02/02 02:58:32;;;;;;;12.95;6.20;;;7.10;99.90;;;;;;5071696;28;20378;-55
2022/02/02 03:01:19;;;;;;;13.77;5.95;;;7.10;99.90;;;;;;5072280;28;20395;-54
2022/02/02 03:58:28;;;;;;;11.65;3.58;;;7.30;99.90;;;;;;5070753;28;20384;-55
2022/02/02 04:05:53;;;;;;;15.63;4.20;;;7.30;99.90;;;;;;5071238;28;20423;-54
2022/02/02 04:08:26;;;;;;;10.90;3.15;;;7.30;99.90;;;;;;5070673;28;20853;-54
2022/02/02 04:10:55;;;;;;;11.02;3.00;;;7.20;99.90;;;;;;5070932;28;20467;-54
2022/02/02 05:05:33;;;;;;;12.10;3.40;;;7.20;99.90;;;;;;5069643;28;20491;-54
2022/02/02 05:08:02;;;;;;;7.87;2.60;;;7.20;99.90;;;;;;5069922;28;20442;-54
2022/02/02 05:11:28;;;;;;;11.33;4.00;;;7.20;99.90;;;;;;5069339;28;20383;-54
2022/02/02 05:43:16;;;;;;;9.02;3.22;;;7.30;99.90;;;;;;5102688;28;20381;-54
2022/02/02 05:53:24;;;;;;;13.85;3.45;;;7.20;99.90;;;;;;5105921;28;20380;-54
2022/02/02 05:55:51;;;;;;;12.18;3.20;;;7.20;99.90;;;;;;5088925;28;20964;-54
2022/02/02 05:58:26;;;;;;;7.93;2.27;;;7.30;99.90;;;;;;5086445;28;20385;-54
2022/02/02 06:00:55;;;;;;;10.03;3.17;;;7.20;99.90;;;;;;5087623;28;20443;-54
2022/02/02 06:03:45;;;;;;;9.73;2.70;;;7.20;99.90;;;;;;5084371;28;20408;-54
2022/02/02 06:06:11;;;;;;;12.60;3.38;;;7.20;99.90;;;;;;5064300;28;20865;-55
2022/02/02 06:08:45;;;;;;;10.68;2.90;;;7.30;99.90;;;;;;5088121;28;20380;-54
2022/02/02 06:11:12;;;;;;;13.50;4.10;;;7.30;99.90;;;;;;5102301;28;20387;-55
2022/02/02 06:13:43;;;;;;;6.15;2.80;;;7.30;99.90;;;;;;5100083;28;20388;-54
2022/02/02 06:16:09;;;;;;;10.88;3.08;;;7.30;99.90;;;;;;5094163;28;20414;-55
2022/02/02 06:18:37;;;;;;;13.93;3.45;;;7.30;99.90;;;;;;5103212;28;20883;-55
2022/02/02 06:21:08;;;;;;;12.97;3.50;;;7.30;99.90;;;;;;5090734;28;20891;-54
2022/02/02 06:23:37;;;;;;;15.02;3.95;;;7.40;99.90;;;;;;5095374;28;20429;-54
2022/02/02 06:26:04;;;;;;;10.27;3.00;;;5.80;99.90;;;;;;5109165;28;20914;-54
2022/02/02 06:28:37;;;;;;;14.93;3.05;;;8.80;99.90;;;;;;5095327;28;20976;-54
2022/02/02 06:31:05;;;;;;;10.55;3.45;;;7.40;99.90;;;;;;5088903;28;20854;-54
2022/02/02 06:33:36;;;;;;;15.52;4.00;;;7.40;99.90;;;;;;5089833;28;20394;-54
2022/02/02 06:36:08;;;;;;;15.17;3.93;;;7.40;99.90;;;;;;5085972;28;20409;-54
2022/02/02 06:38:34;;;;;;;14.00;3.40;;;7.40;99.90;;;;;;5088438;28;20438;-54
2022/02/02 06:41:00;;;;;;;11.30;3.00;;;7.50;99.90;;;;;;5088905;28;20378;-54
2022/02/02 06:43:28;;;;;;;11.00;3.58;;;7.50;99.90;;;;;;5088143;28;20470;-54
2022/02/02 06:45:56;;;;;;;11.40;3.53;;;7.50;99.90;;;;;;5088636;28;20878;-54
2022/02/02 06:48:22;;;;;;;16.90;3.42;;;7.50;99.90;;;;;;5087469;28;20394;-54
2022/02/02 06:50:58;;;;;;;11.82;3.50;;;7.40;99.90;;;;;;5088292;28;20432;-54
2022/02/02 06:53:37;;;;;;;11.32;3.30;;;7.40;99.90;;;;;;5087575;28;20717;-54
2022/02/02 07:04:29;;;;;;;12.23;3.15;;;7.50;99.90;;;;;;5087683;28;20413;-55
2022/02/02 07:07:10;;;;;;;15.50;3.40;;;7.40;99.90;;;;;;5091053;28;20869;-54
2022/02/02 07:12:24;;;;;;;14.07;3.42;;;7.30;99.90;;;;;;5092089;28;20389;-54
2022/02/02 07:17:54;;;;;;;9.73;2.70;;;7.30;99.90;;;;;;5078997;28;20465;-54
2022/02/02 07:20:40;;;;;;;9.63;2.92;;;7.30;99.90;;;;;;5090826;28;20423;-54
2022/02/02 07:25:58;;;;;;;12.52;2.92;;;7.40;99.90;;;;;;5088488;28;20754;-54
2022/02/02 07:28:45;;;;;;;12.82;3.40;;;7.60;99.90;;;;;;5089525;28;20389;-54
2022/02/02 07:34:25;;;;;;;11.50;3.60;;;7.70;99.90;;;;;;5089846;28;20469;-54
2022/02/02 07:36:55;;;;;;;12.70;4.10;;;7.50;99.90;;;;;;5088145;28;20394;-54
2022/02/02 07:39:24;;;;;;;15.43;3.55;;;7.40;99.90;;;;;;5091017;28;20382;-54
2022/02/02 07:41:53;;;;;;;12.23;4.22;;;7.60;99.90;;;;;;5088099;28;20389;-54
2022/02/02 07:44:24;;;;;;;14.63;4.10;;;7.50;99.90;;;;;;5090214;28;20386;-55
2022/02/02 07:46:53;;;;;;;14.00;4.68;;;7.50;99.90;;;;;;5089742;28;20516;-55
2022/02/02 07:49:33;;;;;;;18.58;5.32;;;7.40;99.90;;;;;;5090495;28;20455;-55
2022/02/02 07:51:59;;;;;;;10.33;3.67;;;7.50;99.90;;;;;;5089355;28;20977;-54
2022/02/02 07:54:30;;;;;;;10.37;4.43;;;7.40;99.90;;;;;;5086181;28;20402;-54
2022/02/02 07:56:57;;;;;;;16.45;4.60;;;7.50;99.90;;;;;;5078828;28;20458;-55
2022/02/02 07:59:45;;;;;;;13.45;4.07;;;7.40;99.90;;;;;;5090144;28;20375;-54
2022/02/02 08:02:13;;;;;;;9.73;3.90;;;7.30;99.90;;;;;;5090781;28;20868;-55
2022/02/02 08:04:38;;;;;;;15.43;4.38;;;7.30;99.90;;;;;;5094324;28;20434;-55
2022/02/02 08:07:07;;;;;;;15.05;4.65;;;7.30;99.90;;;;;;5089371;28;20382;-53
2022/02/02 08:09:39;;;;;;;16.88;4.93;;;7.30;99.90;;;;;;5089879;28;20440;-53
2022/02/02 08:12:13;;;;;;;14.90;4.20;;;7.50;99.90;;;;;;5091358;28;20740;-53
2022/02/02 08:14:41;;;;;;;19.05;4.90;;;7.60;99.90;;;;;;5090021;28;20428;-54
2022/02/02 08:17:06;;;;;;;14.60;3.70;;;7.40;99.90;;;;;;5084246;28;20506;-53
2022/02/02 08:19:32;;;;;;;15.73;4.10;;;7.40;99.90;;;;;;5070222;28;20569;-54
2022/02/02 08:21:58;;;;;;;16.00;4.30;;;7.40;99.90;;;;;;5082083;28;20386;-53
2022/02/02 08:24:26;;;;;;;15.38;4.20;;;7.40;99.90;;;;;;5090391;28;20454;-54
2022/02/02 08:26:51;;;;;;;15.13;4.13;;;7.40;99.90;;;;;;5089575;28;20733;-53
2022/02/02 08:29:17;;;;;;;15.00;4.00;;;7.50;99.90;;;;;;5090307;28;20381;-54
2022/02/02 08:31:43;;;;;;;16.50;4.60;;;7.50;99.90;;;;;;5087532;28;20401;-53
2022/02/02 08:34:11;;;;;;;16.95;4.53;;;7.50;99.90;;;;;;5070532;28;20737;-53
2022/02/02 08:36:38;;;;;;;15.13;4.93;;;7.70;99.90;;;;;;5083876;28;20405;-54
2022/02/02 08:39:17;;;;;;;9.82;3.55;;;7.60;99.90;;;;;;5086192;28;20388;-54
2022/02/02 08:41:50;;;;;;;10.30;3.85;;;7.60;99.90;;;;;;5082101;28;20378;-54
2022/02/02 08:44:26;;;;;;;12.88;3.70;;;7.70;99.90;;;;;;5073553;28;20852;-54
2022/02/02 08:47:06;;;;;;;13.40;3.55;;;7.70;99.90;;;;;;5089912;28;20405;-54
2022/02/02 08:49:37;;;;;;;11.10;3.80;;;7.60;99.90;;;;;;5088363;28;21028;-54
2022/02/02 08:52:03;;;;;;;11.43;3.57;;;7.70;99.90;;;;;;5090123;28;20397;-53
2022/02/02 09:02:05;;;;;;;14.65;4.20;;;7.80;99.90;;;;;;5069880;28;20383;-53
2022/02/02 09:07:15;;;;;;;15.75;4.10;;;7.80;99.90;;;;;;5080409;28;20422;-54
2022/02/02 09:26:02;;;;;;;10.63;4.00;;;8.10;99.90;;;;;;5069431;28;20799;-54
2022/02/02 09:33:57;;;;;;;15.45;4.00;;;8.60;99.90;;;;;;5069336;28;20380;-54
2022/02/02 09:36:27;;;;;;;12.23;3.80;;;8.60;99.90;;;;;;5068779;28;20435;-54
2022/02/02 09:38:54;;;;;;;10.80;2.90;;;8.70;99.90;;;;;;5068926;28;20392;-53
2022/02/02 09:43:59;;;;;;;20.00;6.20;;;9.00;99.90;;;;;;5069414;28;20380;-54
2022/02/02 09:46:31;;;;;;;10.27;3.00;;;9.40;99.90;;;;;;5068615;28;20399;-53
2022/02/02 09:49:02;;;;;;;22.83;9.80;;;9.10;99.90;;;;;;5069421;28;20396;-54
2022/02/02 09:51:49;;;;;;;22.10;8.80;;;9.60;99.90;;;;;;5051071;28;20883;-56
2022/02/02 09:54:28;;;;;;;13.65;3.63;;;10.30;99.90;;;;;;5069040;28;20455;-57
2022/02/02 10:00:14;;;;;;;13.60;3.30;;;10.30;99.90;;;;;;5068754;28;20403;-56
2022/02/02 10:15:29;;;;;;;12.65;3.80;;;9.00;99.90;;;;;;5084104;28;20406;-54
2022/02/02 10:18:03;;;;;;;12.27;3.33;;;8.80;99.90;;;;;;5079599;28;20891;-53
2022/02/02 10:20:30;;;;;;;14.47;3.80;;;8.80;99.90;;;;;;5090445;28;20378;-53
2022/02/02 10:22:58;;;;;;;9.63;3.35;;;9.10;99.90;;;;;;5085975;28;20374;-54
2022/02/02 10:25:24;;;;;;;15.23;3.53;;;9.30;99.90;;;;;;5085435;28;20490;-54
2022/02/02 10:27:50;;;;;;;10.60;3.30;;;9.20;99.90;;;;;;5088647;28;20469;-54
2022/02/02 10:30:21;;;;;;;11.77;3.83;;;9.10;99.90;;;;;;5089182;28;20377;-54
2022/02/02 10:32:49;;;;;;;13.23;4.20;;;9.20;99.90;;;;;;5092694;28;20390;-54
2022/02/02 10:35:41;;;;;;;11.63;3.63;;;9.10;99.90;;;;;;5093925;28;20393;-54
2022/02/02 10:38:13;;;;;;;15.13;3.50;;;8.90;99.90;;;;;;5090852;28;20394;-54
2022/02/02 10:40:56;;;;;;;11.00;3.95;;;8.70;99.90;;;;;;5105306;28;20408;-53
2022/02/02 10:43:54;;;;;;;13.57;3.50;;;8.60;99.90;;;;;;5071313;28;20376;-54
2022/02/02 10:46:17;;;;;;;14.10;3.90;;;8.60;99.90;;;;;;5072677;28;20415;-54
2022/02/02 10:48:48;;;;;;;15.20;4.13;;;8.70;99.90;;;;;;5072203;28;20387;-53
2022/02/02 10:51:28;;;;;;;13.33;4.00;;;8.90;99.90;;;;;;5072252;28;20370;-54
2022/02/02 11:07:56;;;;;;;18.08;5.13;;;9.10;99.90;;;;;;5086581;28;20430;-54
2022/02/02 11:10:23;;;;;;;14.20;4.80;;;9.20;99.90;;;;;;5103710;28;20391;-54
2022/02/02 11:12:54;;;;;;;12.45;3.67;;;9.30;99.90;;;;;;5104115;28;20396;-54
2022/02/02 11:15:34;;;;;;;20.65;7.10;;;9.50;99.90;;;;;;5103387;28;20388;-54
2022/02/02 11:18:10;;;;;;;16.70;4.45;;;9.50;99.90;;;;;;5081537;28;20419;-54
2022/02/02 11:20:38;;;;;;;12.98;4.20;;;9.60;99.90;;;;;;5111875;28;20380;-54
2022/02/02 11:23:05;;;;;;;15.00;3.05;;;9.90;99.90;;;;;;5102283;28;20468;-54
2022/02/02 11:25:35;;;;;;;14.50;3.83;;;10.30;99.90;;;;;;5099870;28;20425;-54
2022/02/02 11:28:06;;;;;;;15.88;3.67;;;9.90;99.90;;;;;;5107694;28;20492;-54
2022/02/02 11:30:32;;;;;;;12.77;3.88;;;9.80;99.90;;;;;;5093441;28;20386;-54
2022/02/02 11:33:21;;;;;;;20.55;4.13;;;9.90;99.90;;;;;;5089206;28;20882;-54
2022/02/02 11:35:49;;;;;;;16.07;3.40;;;9.60;99.90;;;;;;5086405;28;20418;-54
2022/02/02 11:38:27;;;;;;;11.40;2.88;;;9.50;99.90;;;;;;5124267;27;20823;-54
2022/02/02 11:41:12;;;;;;;16.02;3.58;;;10.50;99.90;;;;;;5091479;28;20394;-54
2022/02/02 11:46:45;;;;;;;11.70;3.75;;;10.80;99.90;;;;;;5090749;28;20397;-54
2022/02/02 11:49:18;;;;;;;14.18;3.47;;;10.80;99.90;;;;;;5091496;28;20435;-54
2022/02/02 11:51:53;;;;;;;13.88;3.00;;;10.50;99.90;;;;;;5091929;28;20377;-54
2022/02/02 11:54:32;;;;;;;14.27;2.75;;;10.20;99.90;;;;;;5090721;28;20737;-55
2022/02/02 11:56:58;;;;;;;10.60;3.87;;;10.00;99.90;;;;;;5091632;28;20398;-55
2022/02/02 11:59:54;;;;;;;12.52;3.45;;;9.80;99.90;;;;;;5090798;28;20385;-54
2022/02/02 12:05:21;;;;;;;11.90;2.90;;;9.60;99.90;;;;;;5091690;28;20382;-54
2022/02/02 12:08:13;;;;;;;14.50;3.80;;;9.40;99.90;;;;;;5091487;28;20382;-54
2022/02/02 12:44:36;;;;;;;16.60;4.07;;;9.90;99.90;;;;;;5090453;28;20480;-54
2022/02/02 12:57:22;;;;;;;13.23;3.40;;;9.70;99.90;;;;;;5090079;28;20502;-54
2022/02/02 13:02:17;;;;;;;21.90;4.60;;;9.30;99.90;;;;;;5090184;28;20480;-55
2022/02/02 13:04:46;;;;;;;15.63;4.03;;;9.10;99.90;;;;;;5089450;28;20383;-55
2022/02/02 13:07:19;;;;;;;15.07;5.20;;;9.00;99.90;;;;;;5090277;28;20472;-55
2022/02/02 13:09:50;;;;;;;16.70;4.53;;;9.10;99.90;;;;;;5090055;28;20393;-55
2022/02/02 13:12:37;;;;;;;22.80;7.27;;;9.10;99.90;;;;;;5089834;28;20493;-55
2022/02/02 13:17:44;;;;;;;17.08;4.53;;;9.20;99.90;;;;;;5088253;28;20418;-55
2022/02/02 13:20:13;;;;;;;18.70;5.70;;;9.20;99.90;;;;;;5088998;28;20390;-55
2022/02/02 13:22:40;;;;;;;27.48;7.70;;;9.30;99.90;;;;;;5088687;28;20544;-55
2022/02/02 13:25:32;;;;;;;19.58;7.47;;;9.40;99.90;;;;;;5089150;28;20446;-55
2022/02/02 13:28:00;;;;;;;18.80;7.75;;;9.60;99.90;;;;;;5089005;28;20479;-55
2022/02/02 13:30:48;;;;;;;24.60;8.00;;;9.70;99.90;;;;;;5088384;28;20374;-55
2022/02/02 13:33:31;;;;;;;24.73;7.82;;;9.70;99.90;;;;;;5089160;28;20370;-55
2022/02/02 13:36:39;;;;;;;25.85;8.38;;;9.50;99.90;;;;;;5089024;28;20408;-55
2022/02/02 13:39:25;;;;;;;16.63;5.07;;;9.60;99.90;;;;;;5089114;28;20378;-55
2022/02/02 13:45:05;;;;;;;11.00;3.60;;;9.30;99.90;;;;;;5087684;28;20423;-55
2022/02/02 13:50:39;;;;;;;11.55;3.47;;;9.30;99.90;;;;;;5088958;28;20727;-55
2022/02/02 13:56:15;;;;;;;10.93;4.07;;;9.60;99.90;;;;;;5088533;28;21221;-55
2022/02/02 14:06:30;;;;;;;13.77;4.50;;;8.70;99.90;;;;;;5087148;28;20404;-55
2022/02/02 14:32:58;;;;;;;14.55;3.88;;;9.80;99.90;;;;;;5089000;28;20374;-55
2022/02/02 14:35:23;;;;;;;14.20;4.30;;;9.80;99.90;;;;;;5087642;28;20481;-55
2022/02/02 14:37:51;;;;;;;11.68;3.90;;;9.70;99.90;;;;;;5089077;28;20446;-55
2022/02/02 14:40:32;;;;;;;14.82;4.60;;;9.60;99.90;;;;;;5088863;28;20441;-55
2022/02/02 14:43:01;;;;;;;11.17;4.00;;;9.40;99.90;;;;;;5088555;28;20629;-54
2022/02/02 14:45:30;;;;;;;14.43;4.38;;;9.10;99.90;;;;;;5086169;28;20751;-55
2022/02/02 14:48:05;;;;;;;16.80;5.05;;;8.90;99.90;;;;;;5088817;28;20386;-55
2022/02/02 14:50:38;;;;;;;14.05;4.30;;;8.80;99.90;;;;;;5087843;28;20901;-55
2022/02/02 15:27:38;;;;;;;6.37;2.70;;;8.30;99.90;;;;;;5091085;28;20435;-52
2022/02/02 15:30:24;;;;;;;11.30;3.00;;;8.10;99.90;;;;;;5092099;28;20473;-53
2022/02/02 15:32:52;;;;;;;8.38;2.75;;;8.20;99.90;;;;;;5091880;28;21141;-53
2022/02/02 15:35:19;;;;;;;9.03;2.70;;;8.20;99.90;;;;;;5091922;28;20389;-55
2022/02/02 15:38:05;;;;;;;7.47;2.65;;;8.10;99.90;;;;;;5091245;28;20405;-55
2022/02/02 15:40:39;;;;;;;9.50;2.90;;;8.10;99.90;;;;;;5091207;28;20438;-55
2022/02/02 15:43:24;;;;;;;9.70;3.17;;;8.00;99.90;;;;;;5091860;28;20500;-55
2022/02/02 16:02:17;;;;;;;14.93;5.20;;;7.90;99.90;;;;;;5091215;28;20374;-55
2022/02/02 16:04:43;;;;;;;11.90;5.20;;;7.80;99.90;;;;;;5091215;28;20406;-55
2022/02/02 16:07:12;;;;;;;13.07;4.78;;;7.90;99.90;;;;;;5091255;28;20390;-55
2022/02/02 16:09:46;;;;;;;11.23;4.20;;;7.80;99.90;;;;;;5090289;28;20398;-55
2022/02/02 16:12:40;;;;;;;12.83;4.97;;;7.80;99.90;;;;;;5090955;28;20394;-55
2022/02/02 16:18:08;;;;;;;12.57;4.07;;;7.60;99.90;;;;;;5089519;28;20465;-55
2022/02/02 16:37:09;;;;;;;10.48;3.92;;;7.40;99.90;;;;;;5086994;28;20448;-55
2022/02/02 16:39:46;;;;;;;10.93;3.65;;;7.40;99.90;;;;;;5089724;28;20389;-55
2022/02/02 16:44:56;;;;;;;10.85;3.90;;;7.50;99.90;;;;;;5090372;28;20393;-55
2022/02/02 16:47:22;;;;;;;7.70;3.47;;;7.50;99.90;;;;;;5089927;28;20843;-55
2022/02/02 16:49:48;;;;;;;9.98;3.40;;;7.60;99.90;;;;;;5088880;28;20382;-55
2022/02/02 16:52:16;;;;;;;7.80;3.90;;;7.60;99.90;;;;;;5089214;28;20454;-55
2022/02/02 16:54:44;;;;;;;9.27;3.20;;;7.60;99.90;;;;;;5089786;28;20382;-55
2022/02/02 17:32:29;;;;;;;8.93;3.50;;;7.40;99.90;;;;;;5089857;28;20366;-55
2022/02/02 17:35:09;;;;;;;8.30;3.50;;;7.40;99.90;;;;;;5089434;28;20483;-55
2022/02/02 17:40:04;;;;;;;8.77;3.78;;;7.30;99.90;;;;;;5089291;28;20431;-55
2022/02/02 18:20:46;;;;;;;10.68;4.80;;;7.80;99.90;;;;;;5088246;28;20402;-55
2022/02/02 18:23:23;;;;;;;8.43;4.80;;;7.80;99.90;;;;;;5088900;28;20401;-55
2022/02/02 18:25:53;;;;;;;9.02;4.13;;;7.80;99.90;;;;;;5088505;28;20386;-56
2022/02/02 18:29:24;;;;;;;9.57;5.00;;;7.90;99.90;;;;;;5088738;28;20390;-55
2022/02/02 18:33:57;;;;;;;8.77;4.85;;;7.80;99.90;;;;;;5087745;28;20530;-55
2022/02/02 18:47:21;;;;;;;9.68;5.43;;;7.80;99.90;;;;;;5071924;28;20524;-55
2022/02/02 18:52:59;;;;;;;10.23;4.97;;;7.70;99.90;;;;;;5080648;28;20403;-55
2022/02/02 18:58:12;;;;;;;10.17;5.03;;;7.70;99.90;;;;;;5080090;28;21245;-55
2022/02/02 19:01:04;;;;;;;10.57;4.82;;;7.70;99.90;;;;;;5088773;28;20390;-54
2022/02/02 19:31:14;;;;;;;9.07;5.00;;;7.00;99.90;;;;;;5088309;28;20384;-56
2022/02/02 19:53:36;;;;;;;9.82;4.60;;;6.40;99.90;;;;;;5088307;28;20427;-56
2022/02/02 20:04:33;;;;;;;9.45;5.05;;;6.10;99.90;;;;;;5089263;28;20761;-56
2022/02/02 20:07:07;;;;;;;9.98;5.30;;;6.00;99.90;;;;;;5090114;28;20867;-56
2022/02/02 20:12:23;;;;;;;9.90;5.35;;;6.10;99.90;;;;;;5086192;28;20397;-56
2022/02/02 20:14:48;;;;;;;11.10;5.70;;;6.20;99.90;;;;;;5084042;28;20437;-57
2022/02/02 20:17:17;;;;;;;9.90;5.20;;;6.20;99.90;;;;;;5084073;28;20459;-56
2022/02/02 20:19:47;;;;;;;10.65;5.40;;;6.20;99.90;;;;;;5085822;28;20383;-56
2022/02/02 20:22:15;;;;;;;10.48;5.10;;;6.20;99.90;;;;;;5092237;28;20383;-54
2022/02/02 20:24:50;;;;;;;10.35;5.32;;;6.10;99.90;;;;;;5101799;28;20473;-56
2022/02/02 20:27:16;;;;;;;10.80;4.93;;;6.20;99.90;;;;;;5091047;28;20400;-56
2022/02/02 20:29:42;;;;;;;11.10;5.32;;;6.30;99.90;;;;;;5088984;28;20389;-56
2022/02/02 20:32:08;;;;;;;10.40;5.30;;;6.20;99.90;;;;;;5088369;28;20427;-56
2022/02/02 20:34:34;;;;;;;9.60;5.00;;;6.30;99.90;;;;;;5076078;28;20393;-56
2022/02/02 20:36:59;;;;;;;10.98;4.88;;;6.40;99.90;;;;;;5085554;28;20426;-54
2022/02/02 20:41:55;;;;;;;8.23;4.82;;;6.50;99.90;;;;;;5075235;28;20473;-54
2022/02/02 20:44:34;;;;;;;9.80;5.00;;;6.60;99.90;;;;;;5080541;28;20403;-55
2022/02/02 21:06:46;;;;;;;9.65;4.78;;;6.70;99.90;;;;;;5082203;28;20408;-56
2022/02/02 21:13:38;;;;;;;9.65;4.82;;;6.90;99.90;;;;;;5069177;28;20441;-57
2022/02/02 21:14:16;;;;;;;9.98;5.07;;;6.90;99.90;;;;;;5079211;28;20882;-56
2022/02/02 21:16:45;;;;;;;12.05;5.90;;;6.90;99.90;;;;;;5082082;28;20851;-56
2022/02/02 21:19:22;;;;;;;12.00;6.20;;;6.90;99.90;;;;;;5084598;28;20398;-56
2022/02/02 21:21:52;;;;;;;11.02;5.85;;;7.70;99.90;;;;;;5077812;28;20467;-56
2022/02/02 21:27:16;;;;;;;10.85;5.93;;;6.70;99.90;;;;;;5072260;28;21036;-56
2022/02/02 21:29:38;;;;;;;11.18;6.47;;;6.60;99.90;;;;;;5079843;28;20519;-56
2022/02/02 21:32:04;;;;;;;11.07;6.20;;;6.60;99.90;;;;;;5082074;28;20990;-56
2022/02/02 21:34:30;;;;;;;11.68;6.40;;;6.60;99.90;;;;;;5081250;28;20375;-56
2022/02/02 21:37:01;;;;;;;10.65;6.60;;;6.60;99.90;;;;;;5072576;28;20761;-56
2022/02/02 21:39:28;;;;;;;11.85;6.70;;;6.70;99.90;;;;;;5079095;28;20412;-57
2022/02/02 21:41:54;;;;;;;10.88;6.25;;;6.70;99.90;;;;;;5083879;28;20381;-56
2022/02/02 21:44:20;;;;;;;11.47;6.30;;;6.80;99.90;;;;;;5081626;28;20452;-56
2022/02/02 21:46:47;;;;;;;11.50;6.32;;;6.90;99.90;;;;;;5087709;28;20409;-56
2022/02/02 21:49:18;;;;;;;10.57;6.00;;;7.00;99.90;;;;;;5088846;28;20373;-57
2022/02/02 21:52:04;;;;;;;12.63;6.00;;;7.10;99.90;;;;;;5088364;28;20385;-56
2022/02/02 21:54:30;;;;;;;38.88;21.95;;;7.00;99.90;;;;;;5087933;28;20409;-56
2022/02/02 21:56:57;;;;;;;11.52;6.82;;;7.00;99.90;;;;;;5089255;28;20554;-56
2022/02/02 21:59:23;;;;;;;10.57;6.40;;;7.10;99.90;;;;;;5089772;28;20389;-56
2022/02/02 22:01:49;;;;;;;9.50;6.00;;;7.00;99.90;;;;;;5087766;28;20382;-56
2022/02/02 22:04:14;;;;;;;10.95;6.28;;;7.00;99.90;;;;;;5091001;28;20402;-56
2022/02/02 22:06:40;;;;;;;12.07;6.30;;;6.90;99.90;;;;;;5082192;28;20379;-56
2022/02/02 22:09:06;;;;;;;10.20;6.05;;;6.90;99.90;;;;;;5077530;28;20400;-56
2022/02/02 22:11:32;;;;;;;11.98;6.47;;;7.20;99.90;;;;;;5085772;28;20387;-56
2022/02/02 22:14:06;;;;;;;11.83;6.67;;;7.20;99.90;;;;;;5091121;28;20428;-56
2022/02/02 22:16:31;;;;;;;12.23;7.07;;;7.20;99.90;;;;;;5080186;28;20511;-56
2022/02/02 22:18:57;;;;;;;11.93;7.13;;;7.20;99.90;;;;;;5084833;28;20457;-56
2022/02/02 22:21:26;;;;;;;11.18;7.03;;;7.30;99.90;;;;;;5088942;28;20401;-56
2022/02/02 22:23:52;;;;;;;11.07;6.50;;;7.40;99.90;;;;;;5081081;28;20522;-56
2022/02/02 22:26:20;;;;;;;11.98;6.22;;;7.50;99.90;;;;;;5084583;28;20531;-56
2022/02/02 22:28:46;;;;;;;11.93;6.90;;;8.50;99.90;;;;;;5087881;28;20427;-56
2022/02/02 22:31:11;;;;;;;10.43;5.90;;;7.60;99.90;;;;;;5091818;28;20619;-56
2022/02/02 22:33:37;;;;;;;12.35;6.90;;;7.60;99.90;;;;;;5084681;28;20428;-56
2022/02/02 22:36:03;;;;;;;12.70;7.07;;;7.70;99.90;;;;;;5086640;28;20878;-56
2022/02/02 22:38:30;;;;;;;13.20;7.50;;;7.80;99.90;;;;;;5086380;28;20486;-56
2022/02/02 22:40:57;;;;;;;13.33;7.70;;;7.80;99.90;;;;;;5084941;28;20438;-56
2022/02/02 22:43:24;;;;;;;13.32;7.30;;;7.90;99.90;;;;;;5086392;28;20389;-56
2022/02/02 22:45:51;;;;;;;14.10;8.02;;;8.00;99.90;;;;;;5084369;28;20895;-56
2022/02/02 22:48:21;;;;;;;14.10;9.18;;;9.00;99.90;;;;;;5085024;28;20386;-56
2022/02/02 22:50:47;;;;;;;34.58;23.13;;;8.10;99.90;;;;;;5079223;28;20469;-56
2022/02/02 22:53:13;;;;;;;25.52;17.15;;;8.10;99.90;;;;;;5083255;28;20390;-56
2022/02/02 22:55:39;;;;;;;21.95;14.65;;;8.20;99.90;;;;;;5087448;28;20466;-56
2022/02/02 22:58:05;;;;;;;24.87;14.60;;;8.10;99.90;;;;;;5084703;28;20458;-56
2022/02/02 23:00:37;;;;;;;23.17;14.57;;;8.10;99.90;;;;;;5085237;28;20389;-56
2022/02/02 23:03:10;;;;;;;17.90;11.43;;;8.10;99.90;;;;;;5083385;28;20395;-56
2022/02/02 23:05:42;;;;;;;18.00;11.02;;;8.20;99.90;;;;;;5084035;28;20404;-57
2022/02/02 23:08:10;;;;;;;21.48;13.20;;;8.10;99.90;;;;;;5087914;28;20396;-56
2022/02/02 23:10:38;;;;;;;18.67;12.07;;;8.10;99.90;;;;;;5086939;28;20380;-56
2022/02/02 23:13:05;;;;;;;19.30;11.05;;;8.10;99.90;;;;;;5093451;28;20496;-56
2022/02/02 23:18:15;;;;;;;14.80;9.23;;;8.20;99.90;;;;;;5084896;28;20767;-56
2022/02/02 23:20:42;;;;;;;12.73;8.30;;;8.20;99.90;;;;;;5081641;28;20386;-57
2022/02/02 23:23:08;;;;;;;12.80;7.13;;;8.20;99.90;;;;;;5080532;28;20395;-56
2022/02/02 23:25:36;;;;;;;12.32;7.15;;;8.10;99.90;;;;;;5086192;28;20394;-56
2022/02/02 23:28:03;;;;;;;11.18;6.95;;;8.20;99.90;;;;;;5089141;28;20390;-56
2022/02/02 23:30:29;;;;;;;11.90;7.43;;;8.20;99.90;;;;;;5090565;28;20426;-56
2022/02/02 23:32:58;;;;;;;12.77;7.70;;;8.10;99.90;;;;;;5087590;28;20404;-57
2022/02/02 23:35:26;;;;;;;12.03;7.37;;;8.20;99.90;;;;;;5092317;28;20853;-56
2022/02/02 23:37:52;;;;;;;12.00;7.68;;;8.20;99.90;;;;;;5091147;28;20446;-56
2022/02/02 23:40:18;;;;;;;13.88;8.10;;;8.20;99.90;;;;;;5092180;28;20378;-56
2022/02/02 23:42:43;;;;;;;12.57;7.60;;;8.10;99.90;;;;;;5090295;28;20457;-56
2022/02/02 23:45:09;;;;;;;12.00;6.90;;;8.10;99.90;;;;;;5092168;28;20397;-56
2022/02/02 23:47:44;;;;;;;16.15;9.38;;;8.50;99.90;;;;;;5091161;28;20414;-56
2022/02/02 23:50:13;;;;;;;15.20;7.72;;;8.30;99.90;;;;;;5086999;28;20392;-56
2022/02/02 23:52:47;;;;;;;15.50;9.57;;;8.20;99.90;;;;;;5081351;28;20388;-56
2022/02/02 23:55:32;;;;;;;13.35;8.55;;;8.40;99.90;;;;;;5076409;28;20411;-56